Time;durP1;ratioP1;P1;durP2;ratioP2;P2;SDS_P1;SDS_P2;PMS_P1;PMS_P2;Temp;Humidity;BMP_temperature;BMP_pressure;BME280_temperature;BME280_humidity;BME280_pressure;Samples;Min_cycle;Max_cycle;Signal;HPM_P1;HPM_P2
2022/08/08 00:03:07;;;;;;;2.88;0.80;;;;;;;18.95;38.27;100213.50;12215790;19;19975;-81
2022/08/08 00:07:41;;;;;;;3.10;0.85;;;;;;;18.91;38.24;100218.00;12192676;19;20412;-81
2022/08/08 00:11:45;;;;;;;0.90;0.70;;;;;;;18.84;38.33;100214.72;12212743;19;20575;-81
2022/08/08 00:16:21;;;;;;;1.77;0.85;;;;;;;18.82;38.58;100216.97;12213956;19;20027;-81
2022/08/08 00:20:41;;;;;;;1.30;0.85;;;;;;;18.82;38.54;100208.59;12188735;19;20010;-81
2022/08/08 00:24:49;;;;;;;1.67;0.82;;;;;;;18.78;38.79;100215.91;12206351;19;20022;-80
2022/08/08 00:28:57;;;;;;;0.90;0.80;;;;;;;18.70;38.82;100224.88;12188655;19;20519;-82
2022/08/08 00:33:06;;;;;;;2.70;0.90;;;;;;;18.69;38.33;100226.84;12211960;19;20030;-81
2022/08/08 00:37:27;;;;;;;1.33;0.70;;;;;;;18.66;38.82;100217.09;12210382;19;20011;-81
2022/08/08 00:42:26;;;;;;;1.08;0.80;;;;;;;18.61;38.89;100214.34;12105346;19;2004575;-81
2022/08/08 00:47:14;;;;;;;0.82;0.70;;;;;;;18.59;39.14;100216.63;12187891;19;20085;-81
2022/08/08 00:51:46;;;;;;;1.17;0.75;;;;;;;18.54;38.76;100207.47;12208751;19;20013;-80
2022/08/08 00:56:19;;;;;;;3.10;0.80;;;;;;;18.54;38.92;100211.06;12187471;19;20066;-80
2022/08/08 01:00:26;;;;;;;1.40;0.80;;;;;;;18.47;39.03;100207.78;12207415;19;20014;-82
2022/08/08 01:04:57;;;;;;;1.42;0.70;;;;;;;18.42;39.36;100207.84;12185253;19;20018;-81
2022/08/08 01:09:10;;;;;;;2.00;0.70;;;;;;;18.34;39.32;100206.50;12206439;19;20021;-81
2022/08/08 01:14:07;;;;;;;1.58;0.73;;;;;;;18.35;39.39;100204.53;12180153;19;20032;-81
2022/08/08 01:18:48;;;;;;;1.50;0.88;;;;;;;18.31;39.51;100201.50;12202617;19;20018;-82
2022/08/08 01:23:24;;;;;;;1.05;0.70;;;;;;;18.29;40.23;100194.56;12186990;19;20156;-81
2022/08/08 01:28:19;;;;;;;1.83;0.75;;;;;;;18.25;39.89;100196.28;12205407;19;20002;-80
2022/08/08 01:32:35;;;;;;;0.80;0.60;;;;;;;18.20;39.71;100192.41;12181626;19;20007;-81
2022/08/08 01:37:17;;;;;;;1.45;0.80;;;;;;;18.16;39.88;100194.09;12206354;19;20040;-80
2022/08/08 01:42:12;;;;;;;1.17;0.70;;;;;;;18.13;39.92;100200.25;12184817;19;20003;-81
2022/08/08 01:46:38;;;;;;;0.50;0.50;;;;;;;18.05;40.05;100198.09;12205703;19;20110;-81
2022/08/08 01:51:04;;;;;;;1.20;0.82;;;;;;;17.99;40.29;100196.44;12185341;19;21074;-82
2022/08/08 01:55:46;;;;;;;;;;;;;;;17.95;39.85;100199.00;12185247;19;20648;-80
2022/08/08 02:00:25;;;;;;;1.45;0.82;;;;;;;17.89;40.39;100199.31;12203722;19;20250;-82
2022/08/08 02:04:44;;;;;;;1.80;0.70;;;;;;;17.81;40.16;100200.75;12184708;19;20006;-81
2022/08/08 02:09:05;;;;;;;1.77;0.70;;;;;;;17.75;40.52;100207.44;12206314;19;20027;-81
2022/08/08 02:13:26;;;;;;;2.35;0.90;;;;;;;17.70;40.78;100210.28;12205727;19;20006;-81
2022/08/08 02:18:05;;;;;;;1.50;0.85;;;;;;;17.62;41.18;100203.34;12105037;19;2004349;-81
2022/08/08 02:22:32;;;;;;;1.90;0.60;;;;;;;17.59;40.95;100217.03;12207642;19;20050;-81
2022/08/08 02:26:48;;;;;;;0.88;0.70;;;;;;;17.63;41.01;100216.16;12193965;19;20080;-80
2022/08/08 02:30:56;;;;;;;1.40;0.70;;;;;;;17.61;41.17;100215.63;12214308;19;20528;-80
2022/08/08 02:35:26;;;;;;;1.70;0.80;;;;;;;17.61;41.02;100224.00;12194697;19;20772;-81
2022/08/08 02:40:03;;;;;;;1.45;0.90;;;;;;;17.61;41.29;100221.22;12263129;19;20010;-80
2022/08/08 02:44:24;;;;;;;2.22;1.20;;;;;;;17.56;41.11;100218.44;12202649;19;20074;-82
2022/08/08 02:49:06;;;;;;;0.77;0.70;;;;;;;17.51;41.48;100215.66;12221006;19;20014;-82
2022/08/08 02:53:30;;;;;;;2.35;0.70;;;;;;;17.44;41.90;100223.50;12197921;19;20022;-80
2022/08/08 02:57:39;;;;;;;2.20;0.80;;;;;;;17.40;42.30;100227.97;12219255;19;20010;-79
2022/08/08 03:02:08;;;;;;;3.00;0.90;;;;;;;17.37;41.91;100234.13;12196486;19;20035;-80
2022/08/08 03:06:45;;;;;;;1.65;0.98;;;;;;;17.29;42.38;100228.03;12215658;19;20010;-81
2022/08/08 03:11:08;;;;;;;1.38;0.90;;;;;;;17.25;42.34;100221.38;12195618;19;20011;-79
2022/08/08 03:15:45;;;;;;;2.08;0.80;;;;;;;17.23;42.69;100233.91;12210745;19;20010;-80
2022/08/08 03:20:05;;;;;;;1.02;0.90;;;;;;;17.22;42.64;100219.16;12195032;19;20413;-81
2022/08/08 03:24:18;;;;;;;1.48;0.70;;;;;;;17.26;42.37;100233.34;12210589;19;20011;-83
2022/08/08 03:28:30;;;;;;;1.95;0.93;;;;;;;17.23;42.38;100228.34;12198732;19;20485;-80
2022/08/08 03:37:16;;;;;;;3.28;0.90;;;;;;;17.17;42.97;100226.69;12215541;19;19975;-84
2022/08/08 03:41:40;;;;;;;2.05;0.80;;;;;;;17.11;43.20;100233.41;12192494;19;20010;-82
2022/08/08 03:46:06;;;;;;;0.98;0.88;;;;;;;17.06;43.49;100240.63;12213598;19;20010;-81
2022/08/08 03:50:17;;;;;;;2.10;1.00;;;;;;;17.02;43.59;100236.75;12194424;19;20010;-81
2022/08/08 03:54:23;;;;;;;1.05;0.73;;;;;;;16.98;43.45;100234.78;12214001;19;20031;-82
2022/08/08 03:58:51;;;;;;;1.00;0.90;;;;;;;16.93;43.53;100238.44;12190741;19;20020;-81
2022/08/08 04:02:57;;;;;;;1.55;0.93;;;;;;;16.84;44.10;100240.13;12215231;19;20364;-82
2022/08/08 04:07:01;;;;;;;1.00;0.90;;;;;;;16.82;44.05;100243.19;12211948;19;20479;-81
2022/08/08 04:11:09;;;;;;;2.72;1.00;;;;;;;16.75;44.20;100250.97;12191012;19;20045;-80
2022/08/08 04:15:12;;;;;;;2.53;0.90;;;;;;;16.75;44.35;100262.09;12210009;19;20540;-81
2022/08/08 04:19:21;;;;;;;1.27;0.82;;;;;;;16.69;44.99;100262.41;12213175;19;20006;-84
2022/08/08 04:23:31;;;;;;;1.85;0.98;;;;;;;16.63;44.63;100270.72;12189754;19;20018;-82
2022/08/08 04:27:54;;;;;;;1.83;0.60;;;;;;;16.58;45.21;100272.69;12211392;19;20010;-80
2022/08/08 04:32:17;;;;;;;1.80;0.85;;;;;;;16.53;44.98;100275.44;12184186;19;20030;-81
2022/08/08 04:36:35;;;;;;;2.38;1.20;;;;;;;16.47;45.37;100282.97;12209973;19;20018;-80
2022/08/08 04:40:38;;;;;;;2.30;1.00;;;;;;;16.41;45.92;100284.91;12190293;19;20007;-81
2022/08/08 04:44:54;;;;;;;2.40;1.17;;;;;;;16.41;45.65;100295.19;12207512;19;20433;-80
2022/08/08 04:48:56;;;;;;;1.90;1.10;;;;;;;16.35;46.09;100297.13;12209255;19;20003;-80
2022/08/08 04:52:58;;;;;;;2.17;0.90;;;;;;;16.30;46.43;100302.72;12188606;19;20437;-81
2022/08/08 04:57:06;;;;;;;1.08;0.80;;;;;;;16.27;46.88;100302.41;12208719;19;20014;-80
2022/08/08 05:01:09;;;;;;;3.53;1.20;;;;;;;16.28;46.89;100315.22;12209118;19;20037;-79
2022/08/08 05:05:22;;;;;;;2.27;1.10;;;;;;;16.25;47.02;100313.81;12187018;19;20010;-81
2022/08/08 05:09:43;;;;;;;1.30;0.95;;;;;;;16.26;46.86;100309.09;12207006;19;20015;-80
2022/08/08 05:13:46;;;;;;;1.27;0.70;;;;;;;16.33;46.81;100312.41;12186029;19;20014;-80
2022/08/08 05:18:03;;;;;;;1.75;0.88;;;;;;;16.35;46.83;100322.16;12211182;19;20011;-81
2022/08/08 05:22:07;;;;;;;3.10;0.82;;;;;;;16.36;46.84;100329.41;12210273;19;20007;-80
2022/08/08 05:26:13;;;;;;;1.90;0.80;;;;;;;16.38;46.88;100326.34;12186869;19;20010;-80
2022/08/08 05:30:22;;;;;;;1.55;0.90;;;;;;;16.45;47.15;100334.41;12205627;19;20352;-81
2022/08/08 05:34:46;;;;;;;1.65;0.80;;;;;;;16.49;46.96;100328.03;12182111;19;20713;-83
2022/08/08 05:38:52;;;;;;;0.77;0.75;;;;;;;16.54;46.53;100341.13;12207391;19;20536;-81
2022/08/08 05:42:56;;;;;;;;;;;;;;;16.55;46.91;100338.06;12208754;19;20038;-82
2022/08/08 05:47:02;;;;;;;3.30;0.88;;;;;;;16.57;46.81;100344.19;12186167;19;19984;-82
2022/08/08 05:51:07;;;;;;;1.58;0.90;;;;;;;16.63;46.96;100347.81;12208915;19;20007;-80
2022/08/08 05:55:16;;;;;;;1.98;1.10;;;;;;;16.71;47.01;100357.53;12212752;19;20078;-81
2022/08/08 05:59:23;;;;;;;3.70;1.13;;;;;;;16.76;47.26;100355.63;12199691;19;20006;-81
2022/08/08 06:04:01;;;;;;;3.22;1.10;;;;;;;16.83;47.51;100356.16;12218278;19;20016;-82
2022/08/08 06:08:17;;;;;;;1.05;0.90;;;;;;;16.90;47.33;100363.44;12197309;19;20018;-80
2022/08/08 06:12:38;;;;;;;3.50;0.82;;;;;;;17.05;47.13;100371.78;12222811;19;20011;-81
2022/08/08 06:16:41;;;;;;;3.53;0.93;;;;;;;17.18;46.69;100376.78;12226356;19;20040;-83
2022/08/08 06:21:06;;;;;;;1.20;0.77;;;;;;;17.32;46.95;100360.31;12228504;19;20007;-82
2022/08/08 06:25:30;;;;;;;3.45;0.60;;;;;;;17.54;46.59;100368.34;12205079;19;20061;-82
2022/08/08 06:30:10;;;;;;;6.80;0.88;;;;;;;17.65;46.84;100371.94;12225935;19;20027;-81
2022/08/08 06:34:28;;;;;;;1.60;1.00;;;;;;;17.78;46.75;100379.72;12202352;19;20013;-81
2022/08/08 06:38:36;;;;;;;3.90;1.15;;;;;;;17.98;46.25;100378.81;12226517;19;20356;-82
2022/08/08 06:42:49;;;;;;;2.83;1.02;;;;;;;18.22;46.10;100379.81;12214741;19;20014;-82
2022/08/08 06:46:57;;;;;;;1.20;1.00;;;;;;;18.45;45.78;100374.69;12199562;19;20006;-82
2022/08/08 06:51:02;;;;;;;2.10;0.90;;;;;;;18.71;45.01;100382.88;12222335;19;20010;-82
2022/08/08 06:55:11;;;;;;;2.40;1.00;;;;;;;19.03;44.09;100383.19;12223454;19;20007;-82
2022/08/08 06:59:18;;;;;;;1.90;0.90;;;;;;;19.24;43.69;100383.03;12200783;19;20487;-81
2022/08/08 07:03:41;;;;;;;4.07;1.13;;;;;;;19.54;42.99;100385.53;12221440;19;20013;-82
2022/08/08 07:08:19;;;;;;;2.00;0.80;;;;;;;19.83;42.71;100390.25;12200572;19;20006;-82
2022/08/08 07:12:37;;;;;;;1.45;1.10;;;;;;;20.17;42.01;100398.53;12219422;19;20535;-81
2022/08/08 07:17:05;;;;;;;1.45;0.88;;;;;;;20.61;40.91;100397.41;12197714;19;20015;-81
2022/08/08 07:21:21;;;;;;;2.00;0.80;;;;;;;20.97;40.41;100394.03;12218309;19;20108;-81
2022/08/08 07:25:37;;;;;;;3.45;1.10;;;;;;;21.29;39.63;100409.16;12192488;19;20014;-81
2022/08/08 07:29:45;;;;;;;1.67;1.08;;;;;;;21.59;39.06;100407.81;12214688;19;20010;-83
2022/08/08 07:34:10;;;;;;;2.78;0.88;;;;;;;21.83;38.55;100405.69;12217274;19;20042;-82
2022/08/08 07:38:36;;;;;;;1.88;0.80;;;;;;;21.93;38.02;100404.63;12199681;19;20003;-81
2022/08/08 07:42:42;;;;;;;2.45;1.02;;;;;;;22.14;37.88;100407.03;12217573;19;20010;-82
2022/08/08 07:46:45;;;;;;;2.25;0.90;;;;;;;22.36;37.37;100397.88;12194743;19;20018;-81
2022/08/08 07:50:53;;;;;;;1.45;0.95;;;;;;;22.63;37.42;100409.03;12213249;19;20026;-83
2022/08/08 07:55:06;;;;;;;2.55;1.00;;;;;;;23.01;36.72;100403.13;12212679;19;20010;-81
2022/08/08 07:59:15;;;;;;;2.45;0.90;;;;;;;23.20;36.61;100412.19;12193719;19;20010;-83
2022/08/08 08:03:42;;;;;;;2.15;1.02;;;;;;;23.39;35.91;100408.34;12216973;19;20015;-82
2022/08/08 08:07:54;;;;;;;2.47;1.10;;;;;;;23.72;35.46;100406.06;12195698;19;20105;-82
2022/08/08 08:12:06;;;;;;;2.58;1.02;;;;;;;24.02;34.74;100426.91;12213706;19;20653;-83
2022/08/08 08:16:17;;;;;;;5.22;0.90;;;;;;;24.19;34.38;100426.13;12210691;19;20015;-81
2022/08/08 08:20:28;;;;;;;1.10;1.00;;;;;;;24.39;34.16;100424.72;12189225;19;20011;-81
2022/08/08 08:24:33;;;;;;;1.27;1.00;;;;;;;24.61;34.40;100431.41;12206017;19;20006;-81
2022/08/08 08:28:37;;;;;;;2.38;1.30;;;;;;;24.70;34.17;100421.78;12189127;19;20011;-81
2022/08/08 08:32:40;;;;;;;2.90;1.10;;;;;;;25.05;33.35;100423.81;12208248;19;20106;-81
2022/08/08 08:36:56;;;;;;;4.05;1.67;;;;;;;25.28;32.97;100416.00;12208334;19;20011;-81
2022/08/08 08:40:59;;;;;;;1.52;1.05;;;;;;;25.58;32.98;100414.97;12187326;19;20014;-81
2022/08/08 08:45:05;;;;;;;2.90;1.35;;;;;;;25.86;32.67;100408.91;12208233;19;20047;-82
2022/08/08 08:49:25;;;;;;;3.33;1.25;;;;;;;25.92;32.53;100421.69;12191464;19;20083;-82
2022/08/08 08:53:40;;;;;;;2.17;1.05;;;;;;;25.97;32.76;100415.84;12211030;19;20013;-81
2022/08/08 08:58:08;;;;;;;3.40;1.10;;;;;;;26.26;32.04;100417.03;12216186;19;20073;-82
2022/08/08 09:02:19;;;;;;;1.80;1.17;;;;;;;26.60;32.18;100413.19;12191206;19;20007;-81
2022/08/08 09:06:30;;;;;;;7.28;1.17;;;;;;;26.84;31.49;100409.69;12207791;19;20015;-81
2022/08/08 09:10:38;;;;;;;2.28;1.23;;;;;;;26.96;31.21;100411.75;12186605;19;20018;-81
2022/08/08 09:14:43;;;;;;;1.20;0.88;;;;;;;27.33;31.05;100415.56;12208564;19;20026;-82
2022/08/08 09:18:51;;;;;;;2.97;1.13;;;;;;;27.37;30.76;100413.72;12208941;19;20352;-81
2022/08/08 09:22:54;;;;;;;3.55;1.45;;;;;;;27.29;30.83;100408.16;12187401;19;20010;-80
2022/08/08 09:27:07;;;;;;;2.10;1.10;;;;;;;27.26;30.74;100410.50;12202341;19;20035;-81
2022/08/08 09:31:40;;;;;;;2.30;1.27;;;;;;;27.66;30.44;100411.88;12206178;19;20066;-83
2022/08/08 09:36:01;;;;;;;3.28;1.17;;;;;;;27.95;29.81;100405.25;12104892;19;2004632;-81
2022/08/08 09:40:07;;;;;;;3.30;1.30;;;;;;;28.14;29.63;100408.34;12208047;19;20412;-81
2022/08/08 09:44:27;;;;;;;1.92;1.05;;;;;;;28.39;29.88;100406.31;12182042;19;20015;-80
2022/08/08 09:48:37;;;;;;;;;;;;;;;28.63;29.09;100398.97;12205274;19;20405;-81
2022/08/08 09:52:51;;;;;;;5.32;1.38;;;;;;;28.61;28.82;100402.16;12234407;19;19909;-80
2022/08/08 09:57:03;;;;;;;4.90;1.33;;;;;;;28.53;28.72;100405.16;12219976;19;20023;-81
2022/08/08 10:01:19;;;;;;;2.25;1.20;;;;;;;28.58;28.14;100391.53;12211257;19;20010;-84
2022/08/08 10:05:41;;;;;;;2.72;1.20;;;;;;;28.73;28.28;100392.78;12186820;19;20107;-81
2022/08/08 10:09:50;;;;;;;3.83;1.42;;;;;;;28.87;28.25;100400.91;12216054;19;20788;-82
2022/08/08 10:14:03;;;;;;;1.63;1.15;;;;;;;28.95;28.35;100394.28;12192033;19;20731;-82
2022/08/08 10:18:27;;;;;;;1.60;1.13;;;;;;;29.30;27.95;100388.03;12218341;19;20729;-82
2022/08/08 10:22:30;;;;;;;;;;;;;;;29.39;27.18;100387.84;12192272;19;20007;-84
2022/08/08 10:26:39;;;;;;;2.88;1.10;;;;;;;29.62;26.72;100386.06;12207452;19;19911;-81
2022/08/08 10:35:41;;;;;;;1.98;1.20;;;;;;;30.18;26.42;100376.53;12187530;19;20013;-81
2022/08/08 10:40:14;;;;;;;3.07;1.00;;;;;;;30.06;26.32;100377.47;12244383;19;20513;-80
2022/08/08 10:44:27;;;;;;;2.67;1.10;;;;;;;30.16;25.69;100364.69;12222965;19;20096;-81
2022/08/08 10:48:34;;;;;;;1.85;1.00;;;;;;;30.18;26.24;100360.28;12242426;19;20034;-80
2022/08/08 10:53:06;;;;;;;2.00;1.25;;;;;;;30.51;25.59;100363.91;12220546;19;20038;-81
2022/08/08 10:57:17;;;;;;;2.08;1.00;;;;;;;30.40;24.37;100373.03;12254073;19;20006;-80
2022/08/08 11:01:45;;;;;;;2.53;1.00;;;;;;;30.73;24.02;100365.22;12229100;19;20013;-80
2022/08/08 11:05:56;;;;;;;2.25;1.20;;;;;;;31.11;23.91;100367.25;12239765;19;20725;-86
2022/08/08 11:10:10;;;;;;;1.60;1.05;;;;;;;30.61;24.21;100361.34;12245439;19;20608;-82
2022/08/08 11:14:20;;;;;;;6.10;1.55;;;;;;;30.43;24.75;100354.44;12216169;19;20010;-81
2022/08/08 11:18:29;;;;;;;5.00;1.65;;;;;;;30.75;24.64;100360.78;12242012;19;20021;-80
2022/08/08 11:22:33;;;;;;;6.30;1.52;;;;;;;31.02;24.00;100355.28;12236880;19;20038;-81
2022/08/08 11:26:41;;;;;;;3.28;1.10;;;;;;;31.02;24.02;100344.72;12245263;19;20131;-81
2022/08/08 11:31:00;;;;;;;2.25;1.30;;;;;;;31.35;23.59;100345.38;12222201;19;20019;-81
2022/08/08 11:35:10;;;;;;;2.63;1.17;;;;;;;31.52;23.08;100347.75;12209051;19;20091;-82
2022/08/08 11:39:34;;;;;;;1.83;1.15;;;;;;;31.46;23.51;100354.97;12227023;19;20019;-81
2022/08/08 11:43:38;;;;;;;3.65;1.10;;;;;;;31.71;22.76;100338.31;12194633;19;20014;-80
2022/08/08 11:47:43;;;;;;;1.92;1.00;;;;;;;32.13;22.14;100332.53;12209451;19;20007;-81
2022/08/08 11:52:06;;;;;;;1.40;1.20;;;;;;;32.77;22.09;100334.66;12214942;19;20017;-82
2022/08/08 11:56:20;;;;;;;2.42;1.05;;;;;;;33.58;21.29;100336.84;12199129;19;20053;-81
2022/08/08 12:00:27;;;;;;;1.67;1.25;;;;;;;34.25;20.83;100321.47;12229930;19;20070;-80
2022/08/08 12:04:29;;;;;;;1.90;1.30;;;;;;;34.79;20.11;100325.47;12195308;19;20010;-80
2022/08/08 12:08:33;;;;;;;3.88;1.20;;;;;;;35.07;19.90;100312.50;12213959;19;20006;-79
2022/08/08 12:12:40;;;;;;;2.67;1.58;;;;;;;35.71;19.38;100312.63;12209439;19;20051;-79
2022/08/08 12:16:51;;;;;;;2.13;1.25;;;;;;;35.82;18.55;100296.25;12192433;19;20593;-79
2022/08/08 12:20:54;;;;;;;2.28;1.60;;;;;;;36.15;18.39;100297.06;12209802;19;20011;-80
2022/08/08 12:24:58;;;;;;;1.80;1.60;;;;;;;36.66;18.49;100298.56;12208052;19;20007;-80
2022/08/08 12:29:00;;;;;;;1.60;1.30;;;;;;;37.10;17.71;100294.25;12185929;19;20068;-79
2022/08/08 12:33:01;;;;;;;1.90;1.30;;;;;;;37.03;17.50;100291.41;12209446;19;20010;-81
2022/08/08 12:37:30;;;;;;;4.38;1.60;;;;;;;37.08;17.58;100276.63;12211898;19;20014;-80
2022/08/08 12:41:43;;;;;;;3.42;1.35;;;;;;;37.48;17.31;100284.97;12188341;19;20026;-81
2022/08/08 12:46:13;;;;;;;1.50;1.20;;;;;;;37.99;16.60;100284.16;12208755;19;20014;-82
2022/08/08 12:50:37;;;;;;;1.80;1.33;;;;;;;38.46;16.43;100275.88;12182267;19;20006;-81
2022/08/08 12:54:40;;;;;;;2.25;1.60;;;;;;;39.18;16.10;100269.97;12204580;19;20011;-81
2022/08/08 12:58:52;;;;;;;3.25;1.25;;;;;;;39.23;15.45;100270.72;12183040;19;20014;-80
2022/08/08 13:02:57;;;;;;;2.28;1.52;;;;;;;39.99;15.68;100265.34;12203888;19;20463;-82
2022/08/08 13:07:09;;;;;;;3.15;1.50;;;;;;;40.03;14.88;100272.66;12205123;19;20610;-81
2022/08/08 13:11:26;;;;;;;3.00;1.35;;;;;;;39.42;15.31;100262.19;12180127;19;20042;-81
2022/08/08 13:15:47;;;;;;;3.43;1.30;;;;;;;39.23;15.88;100262.88;12206876;19;20010;-83
2022/08/08 13:19:56;;;;;;;1.30;1.20;;;;;;;39.31;15.83;100266.50;12181691;19;20014;-79
2022/08/08 13:24:09;;;;;;;3.65;1.35;;;;;;;39.60;15.14;100263.97;12205409;19;20007;-82
2022/08/08 13:28:31;;;;;;;4.13;1.60;;;;;;;39.24;15.34;100253.00;12182390;19;20011;-82
2022/08/08 13:32:37;;;;;;;2.53;1.25;;;;;;;38.82;15.70;100258.13;12200009;19;20017;-84
2022/08/08 13:36:40;;;;;;;3.38;1.23;;;;;;;39.07;15.64;100245.44;12201195;19;20018;-84
2022/08/08 13:40:45;;;;;;;5.20;1.58;;;;;;;39.49;15.10;100248.91;12204433;19;20007;-79
2022/08/08 13:44:54;;;;;;;1.83;1.33;;;;;;;39.79;14.67;100245.91;12240139;19;20025;-83
2022/08/08 13:48:56;;;;;;;3.38;1.45;;;;;;;40.29;14.74;100233.44;12205948;19;20027;-81
2022/08/08 13:53:31;;;;;;;3.30;1.48;;;;;;;41.80;13.57;100230.75;12182972;19;20068;-81
2022/08/08 13:57:37;;;;;;;2.80;1.20;;;;;;;42.05;13.61;100232.97;12200244;19;20015;-81
2022/08/08 14:01:59;;;;;;;8.07;1.20;;;;;;;41.64;13.53;100234.47;12176837;19;20373;-79
2022/08/08 14:06:12;;;;;;;2.58;1.20;;;;;;;41.97;13.12;100239.44;12204427;19;20032;-81
2022/08/08 14:10:35;;;;;;;2.92;1.27;;;;;;;41.93;13.27;100233.75;12184207;19;20010;-80
2022/08/08 14:14:42;;;;;;;2.88;1.63;;;;;;;42.84;13.12;100230.72;12205650;19;20015;-81
2022/08/08 14:18:57;;;;;;;1.85;1.27;;;;;;;42.27;12.74;100241.06;12219402;19;20002;-81
2022/08/08 14:23:12;;;;;;;1.58;1.20;;;;;;;41.92;13.02;100237.09;12200100;19;20333;-80
2022/08/08 14:27:35;;;;;;;1.35;1.00;;;;;;;40.59;13.55;100227.88;12218016;19;20515;-81
2022/08/08 14:31:48;;;;;;;2.42;1.00;;;;;;;38.37;14.70;100222.88;12189790;19;20031;-79
2022/08/08 14:36:09;;;;;;;2.05;1.23;;;;;;;36.94;15.72;100222.91;12212086;19;20014;-81
2022/08/08 14:40:22;;;;;;;3.00;1.30;;;;;;;35.71;16.61;100215.16;12217271;19;20027;-83
2022/08/08 14:44:27;;;;;;;2.45;1.73;;;;;;;34.65;17.61;100210.91;12194731;19;20034;-79
2022/08/08 14:48:46;;;;;;;2.60;1.50;;;;;;;34.20;17.71;100216.84;12220022;19;20072;-79
2022/08/08 14:53:04;;;;;;;3.17;1.30;;;;;;;33.88;18.03;100219.50;12197386;19;20024;-79
2022/08/08 14:57:06;;;;;;;2.72;1.20;;;;;;;33.54;18.73;100218.84;12213004;19;20396;-80
2022/08/08 15:01:08;;;;;;;3.97;1.38;;;;;;;33.16;19.09;100214.41;12234979;19;20010;-79
2022/08/08 15:05:26;;;;;;;5.20;1.40;;;;;;;32.81;18.92;100219.34;12199083;19;20034;-79
2022/08/08 15:09:43;;;;;;;1.75;1.10;;;;;;;32.31;19.34;100207.31;12215659;19;20127;-79
2022/08/08 15:13:46;;;;;;;1.40;1.23;;;;;;;32.07;19.92;100208.66;12195033;19;20036;-79
2022/08/08 15:18:03;;;;;;;3.35;1.23;;;;;;;31.84;20.23;100211.53;12231805;19;20121;-78
2022/08/08 15:22:05;;;;;;;6.00;1.40;;;;;;;31.57;20.57;100207.88;12223018;19;20011;-79
2022/08/08 15:26:07;;;;;;;1.70;1.10;;;;;;;31.32;20.74;100210.25;12190777;19;20015;-77
2022/08/08 15:30:13;;;;;;;1.52;1.20;;;;;;;31.13;21.12;100214.03;12213106;19;20010;-81
2022/08/08 15:34:15;;;;;;;5.03;1.25;;;;;;;31.08;20.65;100211.47;12226824;19;20002;-80
2022/08/08 15:38:33;;;;;;;5.55;1.27;;;;;;;31.10;20.93;100214.78;12203115;19;20074;-80
2022/08/08 15:42:35;;;;;;;2.97;1.27;;;;;;;31.16;20.98;100215.28;12211694;19;20009;-80
2022/08/08 15:46:40;;;;;;;12.23;1.30;;;;;;;31.50;20.84;100213.44;12191341;19;20007;-79
2022/08/08 15:51:00;;;;;;;1.50;0.90;;;;;;;31.58;20.50;100214.38;12214081;19;20002;-80
2022/08/08 15:55:05;;;;;;;5.30;1.20;;;;;;;31.75;19.98;100213.84;12209982;19;20019;-80
2022/08/08 15:59:07;;;;;;;1.20;1.08;;;;;;;31.58;20.15;100209.50;12192067;19;20406;-80
2022/08/08 16:03:10;;;;;;;1.73;0.90;;;;;;;31.52;20.21;100208.19;12215053;19;20504;-80
2022/08/08 16:07:15;;;;;;;2.83;1.10;;;;;;;31.38;21.11;100205.09;12210957;19;20472;-79
2022/08/08 16:11:17;;;;;;;4.32;1.17;;;;;;;31.23;20.65;100204.81;12189296;19;20082;-80
2022/08/08 16:15:41;;;;;;;2.05;1.00;;;;;;;31.05;20.44;100195.97;12209984;19;20017;-80
2022/08/08 16:20:05;;;;;;;1.75;0.95;;;;;;;30.90;20.94;100190.41;12190166;19;20038;-79
2022/08/08 16:24:13;;;;;;;3.90;1.38;;;;;;;31.01;20.91;100197.13;12211362;19;20002;-80
2022/08/08 16:28:15;;;;;;;;;;;;;;;31.05;20.89;100198.00;12214883;19;20015;-79
2022/08/08 16:32:35;;;;;;;2.15;0.98;;;;;;;30.77;21.06;100195.44;12184379;19;19911;-81
2022/08/08 16:36:38;;;;;;;;;;;;;;;30.52;21.43;100197.78;12211003;19;20003;-80
2022/08/08 16:40:41;;;;;;;4.03;1.25;;;;;;;30.34;21.77;100203.09;12187527;19;19907;-80
2022/08/08 16:44:48;;;;;;;1.85;1.00;;;;;;;30.26;21.94;100195.66;12210094;19;20028;-82
2022/08/08 16:48:56;;;;;;;3.47;1.00;;;;;;;30.17;22.03;100195.84;12211443;19;20047;-81
2022/08/08 16:52:58;;;;;;;1.42;0.90;;;;;;;30.14;21.73;100191.72;12187227;19;20066;-81
2022/08/08 16:57:20;;;;;;;1.87;1.00;;;;;;;29.93;22.55;100183.56;12206630;19;20070;-79
2022/08/08 17:01:42;;;;;;;4.50;1.10;;;;;;;29.86;22.04;100188.25;12186629;19;20015;-80
2022/08/08 17:05:45;;;;;;;2.42;1.30;;;;;;;29.85;22.68;100178.91;12209735;19;20010;-81
2022/08/08 17:09:47;;;;;;;3.65;1.70;;;;;;;29.84;22.48;100184.97;12212167;19;21369;-79
2022/08/08 17:13:52;;;;;;;2.88;1.08;;;;;;;29.83;22.64;100184.13;12185864;19;20007;-78
2022/08/08 17:18:05;;;;;;;2.42;1.10;;;;;;;29.81;22.63;100182.88;12207191;19;20018;-80
2022/08/08 17:22:16;;;;;;;2.42;1.00;;;;;;;29.74;22.75;100187.16;12210584;19;20015;-81
2022/08/08 17:26:20;;;;;;;2.80;1.05;;;;;;;29.73;22.37;100193.22;12188043;19;20027;-79
2022/08/08 17:30:30;;;;;;;1.92;1.00;;;;;;;29.59;22.59;100198.53;12207140;19;20014;-81
2022/08/08 17:34:31;;;;;;;2.65;0.82;;;;;;;29.47;22.49;100199.47;12193019;19;20047;-83
2022/08/08 17:38:57;;;;;;;4.83;1.27;;;;;;;29.45;22.62;100201.88;12255850;19;20014;-81
2022/08/08 17:43:19;;;;;;;2.08;1.02;;;;;;;29.36;22.61;100210.56;12220703;19;20015;-81
2022/08/08 17:47:23;;;;;;;2.45;1.20;;;;;;;29.30;22.58;100212.06;12191924;19;20030;-80
2022/08/08 17:51:28;;;;;;;1.50;0.90;;;;;;;29.26;22.50;100211.13;12216566;19;20010;-79
2022/08/08 17:55:31;;;;;;;1.85;1.08;;;;;;;29.19;22.78;100210.94;12194871;19;20035;-79
2022/08/08 17:59:53;;;;;;;0.93;0.70;;;;;;;29.01;23.07;100208.44;12218949;19;20034;-80
2022/08/08 18:04:04;;;;;;;1.50;0.90;;;;;;;29.08;23.28;100227.69;12221609;19;20353;-80
2022/08/08 18:08:09;;;;;;;7.45;1.10;;;;;;;29.28;22.95;100228.63;12193468;19;20077;-80
2022/08/08 18:12:16;;;;;;;2.75;1.00;;;;;;;29.02;23.26;100229.97;12218728;19;20007;-79
2022/08/08 18:16:17;;;;;;;2.40;0.95;;;;;;;28.84;23.41;100234.31;12216949;19;20007;-79
2022/08/08 18:20:24;;;;;;;3.22;1.00;;;;;;;28.56;23.77;100228.66;12196823;19;20010;-80
2022/08/08 18:24:46;;;;;;;2.00;1.00;;;;;;;28.33;24.02;100242.53;12218338;19;20478;-80
2022/08/08 18:28:50;;;;;;;2.60;0.95;;;;;;;28.10;24.59;100240.22;12197092;19;20641;-80
2022/08/08 18:32:55;;;;;;;1.85;0.95;;;;;;;27.92;24.46;100248.16;12214980;19;20021;-80
2022/08/08 18:36:57;;;;;;;1.63;0.90;;;;;;;27.67;24.74;100238.84;12213208;19;20070;-80
2022/08/08 18:41:00;;;;;;;2.83;1.05;;;;;;;27.43;25.14;100250.19;12193004;19;20007;-80
2022/08/08 18:45:04;;;;;;;3.45;1.20;;;;;;;27.16;25.56;100252.50;12216697;19;20080;-80
2022/08/08 18:49:26;;;;;;;3.25;1.00;;;;;;;26.86;26.35;100263.16;12217416;19;20094;-80
2022/08/08 18:53:47;;;;;;;3.63;1.20;;;;;;;26.54;26.40;100276.91;12194338;19;20375;-80
2022/08/08 18:58:09;;;;;;;1.85;0.90;;;;;;;26.23;26.71;100276.47;12215404;19;20661;-81
2022/08/08 19:02:13;;;;;;;5.47;1.07;;;;;;;25.95;27.25;100288.28;12187990;19;20020;-81
2022/08/08 19:06:30;;;;;;;2.65;0.90;;;;;;;25.66;27.50;100291.91;12215028;19;20002;-81
2022/08/08 19:10:32;;;;;;;2.17;1.30;;;;;;;25.43;27.99;100299.81;12193672;19;20014;-82
2022/08/08 19:14:35;;;;;;;2.55;1.10;;;;;;;25.20;28.25;100302.06;12213208;19;20367;-79
2022/08/08 19:18:37;;;;;;;2.00;1.20;;;;;;;24.98;29.01;100306.69;12225914;19;20032;-81
2022/08/08 19:22:55;;;;;;;3.92;1.20;;;;;;;24.83;28.59;100310.06;12195297;19;20011;-81
2022/08/08 19:26:57;;;;;;;2.78;1.08;;;;;;;24.70;28.89;100317.53;12217143;19;20023;-81
2022/08/08 19:30:58;;;;;;;5.20;1.15;;;;;;;24.61;29.51;100315.88;12212429;19;20066;-80
2022/08/08 19:35:09;;;;;;;2.05;1.00;;;;;;;24.47;29.46;100328.13;12190434;19;20007;-81
2022/08/08 19:39:13;;;;;;;2.92;1.17;;;;;;;24.35;29.84;100330.75;12216001;19;20010;-81
2022/08/08 19:43:15;;;;;;;3.97;1.30;;;;;;;24.26;30.43;100329.91;12218030;19;20027;-81